»·PEaware :: N6182F KLAX-KSNA

N6182F :: KLAX-KSNA

FLIGHT INFORMATION

Flight Status: Arrived
Operator: Privately registered:
United States
More flights under this callsign
Pilot: Pablo H. (28355)
Aircraft: CESSNA 182 SKYLANE
(C182)
More flights by this aircraft type
Origin: KLAX Los Angeles Intl
United States
Destination: KSNA John Wayne-Orange Co
United States
More flights between these airports :: More routes between these airports
Route: SLI8 SLI SLI
File this flight plan on PilotEdge
Remarks: TEC route LAXP55
Altitude:
(Current/Filed)
4,000ft
Speed:
(Current/Filed)
135kts
Departed: 17-Mar-20 12:03 PM
Arrived: 17-Mar-20 12:44 PM
Distance/Time
Traveled:
31nm/0:40
Distance/Time
To Go:
Arrived

Flight Plot

Page will automatically refresh every two minutes.

Flight plan parsing failed; only flown route is shown


Map Options




Map Legend


Flown Route
Filed Route
Departure Airport
Arrival Airport
Navaid (VOR, NDB)
Fix

Horizontal Profiles

Position Reports

Time Latitude Longitude Heading Altitude Ground
Speed
17-Mar-20 11:41 33.933756 -118.394733 89 107ft 0kts
17-Mar-20 11:42 33.933756 -118.394733 89 107ft 0kts
17-Mar-20 11:43 33.933756 -118.394733 89 107ft 0kts
17-Mar-20 11:44 33.933756 -118.394733 89 107ft 0kts
17-Mar-20 11:45 33.933756 -118.394733 89 107ft 0kts
17-Mar-20 11:46 33.933756 -118.394733 89 107ft 0kts
17-Mar-20 11:47 33.933756 -118.394733 89 107ft 0kts
17-Mar-20 11:48 33.933756 -118.394733 89 107ft 0kts
17-Mar-20 11:49 33.933756 -118.394733 89 107ft 0kts
17-Mar-20 11:50 33.933756 -118.394733 89 107ft 0kts
17-Mar-20 11:51 33.933756 -118.394733 89 107ft 0kts
17-Mar-20 11:52 33.933756 -118.394733 89 107ft 0kts
17-Mar-20 11:53 33.933756 -118.394732 84 107ft 0kts
17-Mar-20 11:54 33.934991 -118.392322 61 104ft 13kts
17-Mar-20 11:55 33.935798 -118.385916 83 101ft 23kts
17-Mar-20 11:56 33.936280 -118.383104 27 98ft 0kts
17-Mar-20 11:57 33.936280 -118.383104 27 98ft 0kts
17-Mar-20 11:58 33.936280 -118.383104 27 98ft 0kts
17-Mar-20 11:59 33.936280 -118.383104 27 98ft 0kts
17-Mar-20 12:00 33.936280 -118.383104 27 98ft 0kts
17-Mar-20 12:02 33.936867 -118.382778 19 98ft 13kts
17-Mar-20 12:03 33.936377 -118.390179 260 151ft 90kts
17-Mar-20 12:04 33.935072 -118.417826 264 1485ft 90kts
17-Mar-20 12:05 33.930976 -118.446089 221 2780ft 90kts
17-Mar-20 12:06 33.912376 -118.464162 211 4009ft 96kts
17-Mar-20 12:07 33.880367 -118.467691 168 4034ft 121kts
17-Mar-20 12:08 33.845156 -118.464778 178 3932ft 132kts
17-Mar-20 12:09 33.811992 -118.451496 140 3917ft 127kts
17-Mar-20 12:10 33.782744 -118.425380 143 4044ft 130kts
17-Mar-20 12:11 33.752657 -118.397383 143 4050ft 135kts
17-Mar-20 12:12 33.721672 -118.369760 141 4023ft 138kts
17-Mar-20 12:13 33.691295 -118.340886 142 4021ft 138kts
17-Mar-20 12:14 33.672474 -118.305667 65 4018ft 128kts
17-Mar-20 12:15 33.689897 -118.268113 65 3936ft 127kts
17-Mar-20 12:16 33.703879 -118.230332 60 3980ft 121kts
17-Mar-20 12:17 33.718876 -118.195270 59 4038ft 121kts
17-Mar-20 12:18 33.734041 -118.159581 51 4056ft 121kts
17-Mar-20 12:19 33.753131 -118.125814 56 4066ft 120kts
17-Mar-20 12:19 33.766227 -118.095678 59 4049ft 122kts
17-Mar-20 12:21 33.784840 -118.052891 59 4032ft 121kts
17-Mar-20 12:22 33.800063 -118.015785 60 4002ft 124kts
17-Mar-20 12:23 33.815234 -117.978269 56 4017ft 123kts
17-Mar-20 12:23 33.827994 -117.946587 58 3986ft 127kts
17-Mar-20 12:24 33.843647 -117.908987 61 4008ft 126kts
17-Mar-20 12:25 33.858546 -117.869912 62 4011ft 127kts
17-Mar-20 12:26 33.874709 -117.831233 57 3992ft 129kts
17-Mar-20 12:27 33.889819 -117.791861 62 4010ft 129kts
17-Mar-20 12:28 33.904734 -117.752274 56 4013ft 129kts
17-Mar-20 12:29 33.921247 -117.713950 50 3800ft 131kts
17-Mar-20 12:30 33.951957 -117.691843 27 3536ft 129kts
17-Mar-20 12:31 33.979164 -117.692827 269 3468ft 111kts
17-Mar-20 12:32 33.953731 -117.697406 172 3490ft 112kts
17-Mar-20 12:33 33.924607 -117.709340 206 3454ft 116kts
17-Mar-20 12:34 33.897790 -117.726975 210 3370ft 104kts
17-Mar-20 12:35 33.872556 -117.742439 213 3435ft 102kts
17-Mar-20 12:36 33.847107 -117.758509 211 3439ft 104kts
17-Mar-20 12:37 33.820931 -117.775212 210 3116ft 106kts
17-Mar-20 12:38 33.794584 -117.792244 210 2744ft 105kts
17-Mar-20 12:39 33.767669 -117.810147 207 2060ft 114kts
17-Mar-20 12:40 33.739990 -117.828131 207 1387ft 112kts
17-Mar-20 12:41 33.714519 -117.844599 209 781ft 96kts
17-Mar-20 12:42 33.691732 -117.858886 214 325ft 92kts
17-Mar-20 12:43 33.675674 -117.869040 214 62ft 0kts
17-Mar-20 12:44 33.676052 -117.869948 295 62ft 0kts
17-Mar-20 12:45 33.676052 -117.869948 295 62ft 0kts

Navigation Log

Ident Type
Flight plan parsing failed, navigation log unavailable